Time;durP1;ratioP1;P1;durP2;ratioP2;P2;SDS_P1;SDS_P2;PMS_P1;PMS_P2;Temp;Humidity;BMP_temperature;BMP_pressure;BME280_temperature;BME280_humidity;BME280_pressure;Samples;Min_cycle;Max_cycle;Signal;HPM_P1;HPM_P2
2022/02/07 00:02:02;;;;;;;0.00;0.00;;;;;;;6.23;68.92;96161.41;6228346;28;20232;-73
2022/02/07 00:05:12;;;;;;;0.10;0.10;;;;;;;6.36;67.84;96162.00;6226404;28;20737;-73
2022/02/07 00:08:27;;;;;;;0.10;0.10;;;;;;;6.50;67.28;96156.34;6227940;28;20231;-73
2022/02/07 00:11:38;;;;;;;0.10;0.10;;;;;;;6.54;66.92;96157.75;6217826;28;20236;-73
2022/02/07 00:14:48;;;;;;;0.10;0.10;;;;;;;6.58;67.17;96151.28;6227977;28;20246;-72
2022/02/07 00:18:07;;;;;;;0.10;0.10;;;;;;;6.56;67.01;96149.75;6228421;28;20308;-72
2022/02/07 00:21:19;;;;;;;0.10;0.10;;;;;;;6.62;66.74;96134.28;6227745;28;20247;-72
2022/02/07 00:24:27;;;;;;;0.10;0.10;;;;;;;6.61;66.56;96113.47;6226376;28;20633;-72
2022/02/07 00:27:38;;;;;;;0.20;0.10;;;;;;;6.70;66.94;96138.00;6226818;28;20711;-73
2022/02/07 00:30:49;;;;;;;0.00;0.00;;;;;;;6.57;66.59;96110.31;6204456;28;20697;-72
2022/02/07 00:33:59;;;;;;;0.10;0.10;;;;;;;6.54;67.24;96133.31;6207493;28;20237;-73
2022/02/07 00:37:10;;;;;;;0.43;0.10;;;;;;;6.62;67.24;96121.19;6202044;28;20242;-72
2022/02/07 00:41:11;;;;;;;0.17;0.10;;;;;;;6.60;67.43;96122.28;6212281;28;20557;-72
2022/02/07 00:44:09;;;;;;;0.50;0.20;;;;;;;6.55;67.59;96120.09;6220876;28;20600;-71
2022/02/07 00:47:24;;;;;;;0.00;0.00;;;;;;;6.46;67.50;96122.69;6225182;28;20857;-72
2022/02/07 00:50:37;;;;;;;0.10;0.10;;;;;;;6.40;68.43;96118.81;6226237;28;20225;-73
2022/02/07 00:53:50;;;;;;;0.10;0.10;;;;;;;6.43;68.10;96112.47;6217363;28;20232;-71
2022/02/07 00:57:04;;;;;;;0.00;0.00;;;;;;;6.45;67.71;96092.22;6214421;28;20609;-72
2022/02/07 01:00:17;;;;;;;0.10;0.10;;;;;;;6.43;67.93;96078.41;6225336;28;20240;-73
2022/02/07 01:03:24;;;;;;;0.10;0.10;;;;;;;6.42;68.02;96069.72;6225785;28;20358;-72
2022/02/07 01:06:34;;;;;;;0.10;0.10;;;;;;;6.46;68.18;96060.63;6229457;28;20226;-71
2022/02/07 01:09:55;;;;;;;0.20;0.20;;;;;;;6.33;68.06;96051.38;6221100;28;20350;-72
2022/02/07 01:17:42;;;;;;;0.03;0.03;;;;;;;6.22;68.96;96070.69;6232182;28;20294;-72
2022/02/07 01:48:57;;;;;;;0.10;0.10;;;;;;;6.26;67.95;96025.75;6224365;28;20223;-72
2022/02/07 01:52:23;;;;;;;0.10;0.10;;;;;;;6.23;67.82;96031.25;6226647;28;20226;-72
2022/02/07 01:55:38;;;;;;;0.00;0.00;;;;;;;6.19;68.43;96023.78;6225182;28;20233;-72
2022/02/07 01:58:50;;;;;;;0.10;0.10;;;;;;;6.17;68.99;96030.97;6209810;28;20243;-72
2022/02/07 02:02:07;;;;;;;0.10;0.10;;;;;;;6.24;68.56;96038.16;6224417;28;20239;-73
2022/02/07 02:05:17;;;;;;;0.10;0.10;;;;;;;6.35;68.13;96062.56;6209685;28;20224;-72
2022/02/07 02:08:41;;;;;;;0.10;0.10;;;;;;;6.34;68.35;96061.72;6223848;28;20228;-72
2022/02/07 02:11:46;;;;;;;0.03;0.03;;;;;;;6.35;68.20;96036.34;6209624;28;20229;-72
2022/02/07 02:15:22;;;;;;;0.10;0.10;;;;;;;6.32;68.88;96049.72;6225391;28;20232;-73
2022/02/07 02:36:30;;;;;;;0.10;0.10;;;;;;;5.75;72.09;96010.22;6229922;28;20236;-72
2022/02/07 02:46:40;;;;;;;0.10;0.10;;;;;;;5.42;73.08;95992.22;6227245;28;20239;-75
2022/02/07 02:50:04;;;;;;;0.17;0.10;;;;;;;5.38;73.43;96017.81;6229807;28;20713;-72
2022/02/07 02:53:17;;;;;;;0.10;0.10;;;;;;;5.32;74.09;96020.94;6228523;28;20233;-73
2022/02/07 02:56:34;;;;;;;0.10;0.10;;;;;;;5.28;73.33;96029.22;6227315;28;20226;-73
2022/02/07 02:59:50;;;;;;;0.20;0.20;;;;;;;5.27;73.09;96045.84;6213623;28;20247;-74
2022/02/07 03:03:05;;;;;;;0.20;0.20;;;;;;;5.25;73.77;96050.38;6213762;28;20228;-73
2022/02/07 03:06:14;;;;;;;0.00;0.00;;;;;;;5.20;73.63;96054.19;6244519;28;20699;-72
2022/02/07 03:09:25;;;;;;;0.10;0.10;;;;;;;5.20;72.86;96066.44;6228920;28;20281;-72
2022/02/07 03:12:57;;;;;;;0.07;0.07;;;;;;;5.24;72.57;96078.31;6230536;28;20735;-72
2022/02/07 03:19:40;;;;;;;0.10;0.10;;;;;;;5.23;71.87;96094.13;6226850;28;21076;-71
2022/02/07 03:22:51;;;;;;;0.10;0.10;;;;;;;5.22;72.06;96111.59;6213271;28;20277;-73
2022/02/07 03:26:03;;;;;;;0.10;0.10;;;;;;;5.24;71.82;96128.00;6227850;28;20236;-73
2022/02/07 03:29:12;;;;;;;0.10;0.10;;;;;;;5.21;71.46;96133.47;6228482;28;20225;-73
2022/02/07 03:32:24;;;;;;;0.13;0.13;;;;;;;5.19;71.43;96138.03;6229992;28;20234;-74
2022/02/07 03:35:44;;;;;;;0.10;0.10;;;;;;;5.23;71.94;96138.59;6213353;28;20305;-72
2022/02/07 03:38:57;;;;;;;0.10;0.10;;;;;;;5.14;73.56;96153.25;6227816;28;20789;-73
2022/02/07 03:42:10;;;;;;;0.10;0.10;;;;;;;5.04;73.97;96191.59;6211989;28;20314;-74
2022/02/07 03:45:38;;;;;;;0.20;0.20;;;;;;;4.92;74.55;96197.81;6226395;28;20359;-72
2022/02/07 03:48:54;;;;;;;0.10;0.10;;;;;;;4.86;74.66;96204.38;6228218;28;20213;-74
2022/02/07 03:52:03;;;;;;;0.10;0.10;;;;;;;4.80;75.40;96212.69;6217234;28;20244;-72
2022/02/07 03:55:15;;;;;;;0.10;0.10;;;;;;;4.76;75.37;96222.59;6241355;28;20257;-73
2022/02/07 03:58:42;;;;;;;0.10;0.10;;;;;;;4.65;76.11;96229.63;6226517;28;20592;-72
2022/02/07 04:01:51;;;;;;;0.20;0.20;;;;;;;4.58;76.39;96231.06;6226654;28;20263;-73
2022/02/07 04:05:44;;;;;;;0.20;0.20;;;;;;;4.48;76.21;96245.81;6227095;28;20230;-72
2022/02/07 04:08:43;;;;;;;1.03;0.10;;;;;;;4.44;76.34;96271.34;6224620;28;20236;-72
2022/02/07 04:12:13;;;;;;;0.20;0.20;;;;;;;4.39;76.40;96258.63;6219003;28;20228;-73
2022/02/07 04:15:31;;;;;;;0.20;0.20;;;;;;;4.38;75.88;96292.72;6201428;28;20237;-72
2022/02/07 04:22:18;;;;;;;1.60;0.30;;;;;;;4.35;75.38;96290.34;6215182;28;20310;-73
2022/02/07 04:25:38;;;;;;;0.20;0.20;;;;;;;4.37;76.06;96325.00;6227300;28;20262;-72
2022/02/07 04:28:57;;;;;;;0.20;0.20;;;;;;;4.34;75.40;96339.13;6215899;28;20536;-73
2022/02/07 04:32:10;;;;;;;0.27;0.20;;;;;;;4.33;75.57;96340.06;6215514;28;20322;-72
2022/02/07 04:35:26;;;;;;;0.10;0.10;;;;;;;4.28;75.72;96342.22;6218142;28;20234;-73
2022/02/07 04:38:36;;;;;;;0.20;0.20;;;;;;;4.24;75.49;96329.50;6227008;28;20230;-72
2022/02/07 04:41:51;;;;;;;1.40;0.20;;;;;;;4.18;75.47;96328.19;6210848;28;20228;-72
2022/02/07 04:48:43;;;;;;;0.30;0.30;;;;;;;4.11;74.48;96313.94;6200643;28;20709;-72
2022/02/07 04:55:29;;;;;;;0.20;0.20;;;;;;;4.02;74.61;96338.97;6203181;28;20240;-72
2022/02/07 05:02:08;;;;;;;0.10;0.10;;;;;;;3.97;74.56;96369.81;6200970;28;20822;-72
2022/02/07 05:13:37;;;;;;;0.10;0.10;;;;;;;3.98;74.10;96363.66;6185299;28;20227;-73
2022/02/07 05:15:49;;;;;;;0.20;0.20;;;;;;;3.87;73.24;96368.00;6227348;28;20717;-72
2022/02/07 05:19:02;;;;;;;0.30;0.30;;;;;;;3.76;73.38;96347.94;6224677;28;20258;-72
2022/02/07 05:22:20;;;;;;;0.10;0.10;;;;;;;3.70;73.85;96338.75;6225849;28;20238;-72
2022/02/07 05:26:02;;;;;;;0.10;0.10;;;;;;;3.60;73.66;96360.41;6223847;28;20719;-72
2022/02/07 05:29:47;;;;;;;0.10;0.10;;;;;;;3.58;72.70;96350.13;6225041;28;20231;-75
2022/02/07 05:33:22;;;;;;;0.40;0.20;;;;;;;3.59;71.95;96348.34;6226377;28;20612;-71
2022/02/07 05:36:58;;;;;;;0.10;0.10;;;;;;;3.60;71.71;96366.47;6222944;28;20246;-72
2022/02/07 05:40:41;;;;;;;0.10;0.10;;;;;;;3.52;72.81;96344.50;6219636;28;20232;-72
2022/02/07 05:44:14;;;;;;;0.10;0.10;;;;;;;3.45;72.20;96345.91;6218568;28;20242;-74
2022/02/07 05:47:41;;;;;;;1.43;0.43;;;;;;;3.42;72.05;96333.09;6224995;28;20226;-73
2022/02/07 05:51:14;;;;;;;0.43;0.20;;;;;;;3.38;71.99;96308.19;6227676;28;20275;-74
2022/02/07 05:54:52;;;;;;;0.20;0.20;;;;;;;3.35;71.14;96277.97;6224960;28;20602;-73
2022/02/07 05:58:03;;;;;;;0.10;0.10;;;;;;;3.31;71.81;96255.66;6224558;28;20733;-72
2022/02/07 06:01:37;;;;;;;0.23;0.10;;;;;;;3.25;71.99;96237.88;6224670;28;20234;-73
2022/02/07 06:04:52;;;;;;;0.30;0.30;;;;;;;3.21;71.75;96234.66;6223237;28;20262;-72
2022/02/07 06:08:00;;;;;;;0.17;0.17;;;;;;;3.19;71.96;96240.94;6226139;28;20741;-74
2022/02/07 06:11:08;;;;;;;0.10;0.10;;;;;;;3.20;71.18;96251.22;6209727;28;20238;-71
2022/02/07 06:14:18;;;;;;;0.10;0.10;;;;;;;3.17;71.23;96204.56;6226210;28;20230;-72
2022/02/07 06:17:27;;;;;;;0.17;0.17;;;;;;;3.16;70.57;96254.19;6224339;28;20250;-72
2022/02/07 06:20:38;;;;;;;0.20;0.20;;;;;;;3.12;71.51;96289.22;6220726;28;20229;-74
2022/02/07 06:23:45;;;;;;;0.80;0.20;;;;;;;3.13;71.21;96325.63;6225095;28;20233;-73
2022/02/07 06:26:56;;;;;;;0.10;0.10;;;;;;;3.14;72.75;96376.81;6226217;28;20300;-73
2022/02/07 06:30:10;;;;;;;0.30;0.10;;;;;;;3.10;73.89;96385.78;6203165;28;20226;-73
2022/02/07 06:33:19;;;;;;;0.40;0.20;;;;;;;2.82;75.90;96454.63;6217868;28;20211;-74
2022/02/07 06:36:31;;;;;;;0.10;0.10;;;;;;;2.64;76.74;96476.75;6228351;28;20231;-75
2022/02/07 06:39:43;;;;;;;1.60;0.20;;;;;;;2.44;78.66;96524.94;6224361;28;20291;-73
2022/02/07 06:42:56;;;;;;;0.20;0.20;;;;;;;2.03;79.33;96548.47;6210895;28;20269;-72
2022/02/07 06:46:04;;;;;;;0.30;0.20;;;;;;;1.60;80.53;96593.75;6220446;28;20237;-75
2022/02/07 06:49:19;;;;;;;0.10;0.10;;;;;;;1.22;82.04;96641.09;6241428;28;20266;-71
2022/02/07 06:52:35;;;;;;;0.10;0.10;;;;;;;0.99;82.21;96654.63;6223132;28;20240;-68
2022/02/07 06:55:46;;;;;;;0.10;0.10;;;;;;;0.89;82.57;96675.13;6224304;28;20232;-69
2022/02/07 06:58:57;;;;;;;0.30;0.20;;;;;;;0.79;82.53;96640.22;6224568;28;20232;-69
2022/02/07 07:02:11;;;;;;;0.77;0.10;;;;;;;0.71;82.16;96627.66;6224000;28;20227;-70
2022/02/07 07:05:23;;;;;;;0.70;0.30;;;;;;;0.74;81.96;96629.25;6225668;28;20327;-68
2022/02/07 07:08:51;;;;;;;0.60;0.60;;;;;;;0.79;81.59;96634.19;6214121;28;20823;-69
2022/02/07 07:12:10;;;;;;;0.70;0.20;;;;;;;0.93;79.72;96667.97;6212450;28;20239;-69
2022/02/07 07:15:30;;;;;;;0.70;0.27;;;;;;;1.00;79.93;96667.50;6229182;28;20216;-70
2022/02/07 07:18:42;;;;;;;0.83;0.30;;;;;;;1.02;80.67;96677.81;6229615;28;20228;-70
2022/02/07 07:21:53;;;;;;;0.97;0.40;;;;;;;1.04;80.04;96676.81;6214331;28;20659;-71
2022/02/07 07:25:13;;;;;;;1.17;0.40;;;;;;;1.11;79.03;96698.88;6229506;28;20235;-71
2022/02/07 07:28:27;;;;;;;0.73;0.27;;;;;;;1.18;77.62;96694.19;6228858;28;20244;-71
2022/02/07 07:31:50;;;;;;;1.77;0.40;;;;;;;1.23;77.90;96710.34;6204042;28;20237;-72
2022/02/07 07:35:02;;;;;;;2.23;0.40;;;;;;;1.25;78.31;96711.09;6227130;28;20236;-71
2022/02/07 07:38:25;;;;;;;2.47;0.40;;;;;;;1.31;78.38;96738.47;6220172;28;20239;-71
2022/02/07 07:41:35;;;;;;;0.40;0.40;;;;;;;1.34;78.56;96744.31;6207221;28;20618;-71
2022/02/07 07:44:57;;;;;;;1.60;0.40;;;;;;;1.33;79.45;96750.44;6203029;28;20310;-71
2022/02/07 07:48:48;;;;;;;3.43;0.40;;;;;;;1.35;79.37;96751.19;6197790;28;20236;-71
2022/02/07 07:52:28;;;;;;;1.03;0.40;;;;;;;1.43;79.27;96740.34;6228201;28;20236;-71
2022/02/07 08:02:48;;;;;;;0.60;0.30;;;;;;;1.68;78.02;96745.78;6219320;28;20224;-71
2022/02/07 08:06:16;;;;;;;1.20;0.40;;;;;;;1.61;78.44;96747.06;6225252;28;20212;-73
2022/02/07 08:09:48;;;;;;;1.30;0.40;;;;;;;1.52;78.75;96757.16;6205389;28;20228;-72
2022/02/07 08:12:56;;;;;;;1.67;0.40;;;;;;;1.43;79.14;96763.75;6235656;28;20323;-72
2022/02/07 08:16:03;;;;;;;1.07;0.40;;;;;;;1.46;78.48;96777.41;6227615;28;20231;-75
2022/02/07 08:19:12;;;;;;;0.63;0.30;;;;;;;1.53;77.77;96797.84;6237534;28;20236;-74
2022/02/07 08:22:23;;;;;;;0.37;0.30;;;;;;;1.54;77.99;96809.91;6239380;28;20243;-74
2022/02/07 08:25:40;;;;;;;2.63;0.50;;;;;;;1.72;77.91;96830.47;6241607;28;20235;-74
2022/02/07 08:29:18;;;;;;;0.73;0.33;;;;;;;1.96;76.92;96848.19;6240051;28;20746;-76
2022/02/07 08:32:29;;;;;;;1.27;0.30;;;;;;;2.19;76.05;96845.03;6212379;28;20603;-75
2022/02/07 08:35:39;;;;;;;0.40;0.40;;;;;;;2.28;76.23;96857.50;6229764;28;20239;-75
2022/02/07 08:38:53;;;;;;;0.37;0.30;;;;;;;2.30;76.63;96871.25;6237249;28;20232;-75
2022/02/07 08:42:04;;;;;;;0.83;0.40;;;;;;;2.11;75.13;96900.13;6218826;28;20316;-73
2022/02/07 08:45:15;;;;;;;0.30;0.30;;;;;;;1.99;74.94;96900.88;6233238;28;20239;-76
2022/02/07 08:48:24;;;;;;;2.47;0.40;;;;;;;2.01;73.36;96916.38;6229521;28;20240;-76
2022/02/07 08:51:36;;;;;;;1.50;0.30;;;;;;;2.01;73.64;96908.56;6228738;28;20664;-76
2022/02/07 08:54:50;;;;;;;0.87;0.40;;;;;;;2.01;71.98;96926.78;6228056;28;20235;-74
2022/02/07 08:58:05;;;;;;;0.93;0.33;;;;;;;2.02;72.04;96915.44;6226986;28;20233;-73
2022/02/07 09:01:24;;;;;;;0.27;0.27;;;;;;;2.08;72.33;96955.00;6228224;28;20240;-76
2022/02/07 09:04:45;;;;;;;0.83;0.30;;;;;;;2.07;72.00;96970.69;6228317;28;20629;-76
2022/02/07 09:11:27;;;;;;;0.87;0.40;;;;;;;2.29;69.09;96954.66;6227592;28;20663;-73
2022/02/07 09:14:31;;;;;;;3.50;0.40;;;;;;;2.32;68.77;96996.09;6218986;28;20537;-75
2022/02/07 09:17:40;;;;;;;1.20;0.20;;;;;;;2.30;69.34;96977.97;6219627;28;20269;-73
2022/02/07 09:20:59;;;;;;;0.40;0.23;;;;;;;2.40;70.47;96980.88;6228030;28;20234;-74
2022/02/07 09:24:13;;;;;;;2.47;0.40;;;;;;;2.60;68.31;96991.78;6227852;28;20231;-74
2022/02/07 09:27:22;;;;;;;1.33;0.40;;;;;;;2.71;69.63;96983.34;6225175;28;20208;-71
2022/02/07 09:30:34;;;;;;;0.60;0.40;;;;;;;2.74;69.76;96977.94;6226845;28;20248;-73
2022/02/07 09:33:45;;;;;;;0.93;0.30;;;;;;;2.69;69.27;96984.38;6225811;28;20782;-70
2022/02/07 09:36:54;;;;;;;0.83;0.40;;;;;;;2.77;69.30;96990.78;6226275;28;20243;-71
2022/02/07 09:40:06;;;;;;;0.40;0.30;;;;;;;2.80;69.07;96998.41;6223561;28;20320;-69
2022/02/07 09:43:18;;;;;;;1.27;0.60;;;;;;;2.94;66.83;97014.06;6226644;28;20227;-71
2022/02/07 09:46:45;;;;;;;0.73;0.40;;;;;;;3.05;66.42;96997.78;6226600;28;20725;-72
2022/02/07 09:49:57;;;;;;;1.67;0.40;;;;;;;3.00;67.18;97006.78;6226912;28;20713;-72
2022/02/07 09:53:08;;;;;;;1.40;0.50;;;;;;;2.80;66.77;97047.91;6227031;28;20227;-71
2022/02/07 09:56:16;;;;;;;1.03;0.30;;;;;;;2.78;67.31;97022.91;6228420;28;20251;-71
2022/02/07 09:59:28;;;;;;;0.50;0.30;;;;;;;3.03;65.66;97027.47;6226322;28;20334;-70
2022/02/07 10:02:46;;;;;;;0.70;0.63;;;;;;;3.02;65.47;97044.03;6226349;28;20336;-70
2022/02/07 10:06:01;;;;;;;4.53;0.53;;;;;;;3.06;65.03;97029.88;6225123;28;20243;-71
2022/02/07 10:09:39;;;;;;;0.50;0.30;;;;;;;3.15;63.42;97035.38;6224651;28;20274;-72
2022/02/07 10:19:59;;;;;;;0.30;0.30;;;;;;;3.16;63.49;97007.53;6225391;28;20239;-71
2022/02/07 10:44:59;;;;;;;2.10;0.40;;;;;;;2.86;69.12;97070.19;6228191;28;20235;-70
2022/02/07 10:48:12;;;;;;;0.60;0.50;;;;;;;2.83;70.45;97083.38;6227819;28;20236;-70
2022/02/07 10:51:36;;;;;;;1.50;0.43;;;;;;;2.87;70.36;97095.31;6228223;28;20224;-71
2022/02/07 10:54:51;;;;;;;0.70;0.40;;;;;;;2.97;69.37;97091.22;6233407;28;20224;-70
2022/02/07 10:58:08;;;;;;;0.80;0.50;;;;;;;3.13;68.19;97112.00;6227505;28;20229;-72
2022/02/07 11:04:58;;;;;;;0.30;0.20;;;;;;;3.31;65.27;97098.69;6227965;28;20228;-71
2022/02/07 11:08:26;;;;;;;2.83;0.40;;;;;;;3.45;64.10;97105.69;6227806;28;20235;-71
2022/02/07 11:19:05;;;;;;;0.87;0.40;;;;;;;3.62;59.80;97120.28;6204524;28;20227;-71
2022/02/07 11:29:01;;;;;;;1.23;0.40;;;;;;;3.45;59.50;97164.84;6208259;28;20233;-70
2022/02/07 11:32:27;;;;;;;1.00;0.53;;;;;;;3.56;59.43;97134.56;6212104;28;20235;-70
2022/02/07 11:35:51;;;;;;;0.47;0.33;;;;;;;3.46;59.29;97159.53;6219735;28;20710;-72
2022/02/07 11:39:03;;;;;;;0.40;0.30;;;;;;;3.53;59.26;97155.59;6218989;28;20748;-70
2022/02/07 11:42:14;;;;;;;0.63;0.20;;;;;;;3.65;57.83;97170.53;6218316;28;20253;-71
2022/02/07 11:45:27;;;;;;;0.80;0.40;;;;;;;3.73;57.99;97177.88;6227494;28;20311;-71
2022/02/07 11:48:48;;;;;;;2.07;0.50;;;;;;;3.75;57.55;97196.91;6226642;28;20700;-70
2022/02/07 11:52:19;;;;;;;0.67;0.30;;;;;;;3.66;57.42;97197.47;6228641;28;20230;-70
2022/02/07 11:55:34;;;;;;;1.53;0.50;;;;;;;3.67;58.39;97199.97;6228078;28;20233;-71
2022/02/07 11:58:54;;;;;;;0.63;0.40;;;;;;;3.64;57.05;97228.84;6226841;28;20233;-71
2022/02/07 12:02:10;;;;;;;0.33;0.30;;;;;;;3.80;55.71;97200.06;6229060;28;20226;-69
2022/02/07 12:05:25;;;;;;;0.30;0.30;;;;;;;3.83;56.25;97209.47;6231847;28;20225;-70
2022/02/07 12:08:40;;;;;;;2.07;0.50;;;;;;;3.94;56.14;97207.88;6226749;28;20234;-70
2022/02/07 12:11:51;;;;;;;0.53;0.43;;;;;;;4.05;56.41;97217.69;6213956;28;20236;-70
2022/02/07 12:15:09;;;;;;;1.90;0.33;;;;;;;3.84;54.67;97221.59;6203261;28;20334;-70
2022/02/07 12:18:21;;;;;;;0.50;0.50;;;;;;;3.80;56.81;97220.94;6202340;28;20223;-70
2022/02/07 12:21:30;;;;;;;0.83;0.30;;;;;;;3.71;59.55;97248.44;6211359;28;20697;-70
2022/02/07 12:25:03;;;;;;;1.00;0.40;;;;;;;3.51;62.74;97260.97;6228521;28;20235;-72
2022/02/07 12:28:30;;;;;;;0.20;0.20;;;;;;;3.38;63.35;97270.47;6237192;28;20228;-70
2022/02/07 12:31:40;;;;;;;2.83;0.60;;;;;;;3.32;64.29;97276.84;6203089;28;20648;-70
2022/02/07 12:34:54;;;;;;;2.00;0.40;;;;;;;3.26;65.45;97283.28;6224907;28;20734;-70
2022/02/07 12:38:06;;;;;;;2.30;0.70;;;;;;;3.20;65.47;97299.25;6217182;28;20239;-71
2022/02/07 12:41:18;;;;;;;1.93;0.50;;;;;;;3.15;65.96;97323.91;6207036;28;20235;-70
2022/02/07 12:44:29;;;;;;;2.27;0.80;;;;;;;3.12;64.53;97326.69;6208956;28;20535;-71
2022/02/07 12:47:40;;;;;;;0.97;0.30;;;;;;;3.15;63.70;97326.53;6215583;28;20225;-70
2022/02/07 12:50:56;;;;;;;0.33;0.30;;;;;;;3.24;63.27;97316.41;6225841;28;20218;-70
2022/02/07 12:54:01;;;;;;;0.20;0.20;;;;;;;3.19;63.25;97325.44;6227043;28;20230;-70
2022/02/07 12:57:10;;;;;;;0.60;0.20;;;;;;;3.12;63.56;97330.13;6225510;28;20230;-70
2022/02/07 13:00:22;;;;;;;0.63;0.30;;;;;;;3.17;63.50;97337.72;6226458;28;20217;-70
2022/02/07 13:03:33;;;;;;;0.60;0.30;;;;;;;3.23;63.94;97340.81;6226134;28;20225;-70
2022/02/07 13:06:48;;;;;;;0.93;0.40;;;;;;;3.28;63.22;97354.44;6226860;28;20236;-69
2022/02/07 13:10:03;;;;;;;3.20;0.73;;;;;;;3.37;63.92;97373.09;6223501;28;20239;-70
2022/02/07 13:13:47;;;;;;;1.93;0.60;;;;;;;3.36;63.04;97387.91;6201666;28;20238;-70
2022/02/07 13:16:45;;;;;;;0.47;0.40;;;;;;;3.27;64.65;97365.81;6200945;28;20233;-70
2022/02/07 13:19:54;;;;;;;0.50;0.30;;;;;;;3.20;64.37;97356.63;6222537;28;20738;-70
2022/02/07 13:23:17;;;;;;;1.17;0.40;;;;;;;3.26;65.38;97365.88;6224225;28;20235;-70
2022/02/07 13:26:27;;;;;;;0.43;0.40;;;;;;;3.26;66.23;97398.00;6224681;28;20240;-70
2022/02/07 13:29:46;;;;;;;0.93;0.30;;;;;;;3.25;67.47;97383.28;6226177;28;20224;-69
2022/02/07 13:32:53;;;;;;;2.17;0.80;;;;;;;3.46;67.04;97383.84;6226243;28;20234;-70
2022/02/07 13:36:11;;;;;;;2.47;0.50;;;;;;;3.55;67.16;97379.88;6226361;28;20237;-69
2022/02/07 13:39:23;;;;;;;2.73;0.60;;;;;;;3.52;67.10;97398.31;6225803;28;20265;-70
2022/02/07 13:42:42;;;;;;;1.47;0.77;;;;;;;3.55;66.74;97409.41;6226890;28;20230;-70
2022/02/07 13:46:04;;;;;;;0.57;0.40;;;;;;;3.75;65.50;97418.72;6225823;28;20233;-69
2022/02/07 13:49:15;;;;;;;0.77;0.40;;;;;;;3.81;66.04;97417.50;6225311;28;20241;-69
2022/02/07 13:52:23;;;;;;;2.10;0.50;;;;;;;3.64;65.20;97418.50;6224886;28;20222;-70
2022/02/07 13:55:42;;;;;;;1.67;0.50;;;;;;;3.65;66.11;97421.00;6225444;28;20283;-71
2022/02/07 13:59:12;;;;;;;1.63;0.40;;;;;;;3.64;66.16;97427.16;6225562;28;20226;-69
2022/02/07 14:02:32;;;;;;;2.83;0.60;;;;;;;3.51;64.68;97446.19;6223740;28;20345;-71
2022/02/07 14:06:06;;;;;;;2.70;0.60;;;;;;;3.47;64.82;97444.69;6226623;28;20329;-70
2022/02/07 14:09:14;;;;;;;0.50;0.50;;;;;;;3.49;64.77;97450.66;6223497;28;20224;-69
2022/02/07 14:12:24;;;;;;;1.60;0.43;;;;;;;3.44;62.67;97437.88;6202231;28;20728;-70
2022/02/07 14:15:50;;;;;;;1.57;0.50;;;;;;;3.50;61.98;97462.75;6230578;28;20234;-69
2022/02/07 14:18:58;;;;;;;1.67;0.50;;;;;;;3.56;62.35;97454.63;6230434;28;20234;-71
2022/02/07 14:22:03;;;;;;;0.90;0.63;;;;;;;3.68;61.86;97451.31;6229592;28;20352;-70
2022/02/07 14:25:12;;;;;;;1.60;0.70;;;;;;;3.86;60.71;97465.94;6229976;28;20448;-73
2022/02/07 14:28:20;;;;;;;0.63;0.50;;;;;;;3.77;59.84;97478.66;6230287;28;20756;-73
2022/02/07 14:31:35;;;;;;;1.03;0.50;;;;;;;3.70;57.72;97479.00;6229161;28;20325;-71
2022/02/07 14:34:43;;;;;;;1.83;0.77;;;;;;;3.72;58.16;97492.81;6228924;28;20229;-72
2022/02/07 14:37:51;;;;;;;1.63;0.60;;;;;;;3.70;57.57;97499.88;6219804;28;20247;-73
2022/02/07 14:41:05;;;;;;;1.17;0.40;;;;;;;3.66;57.40;97502.75;6208881;28;20238;-73
2022/02/07 14:44:27;;;;;;;1.17;0.60;;;;;;;3.71;57.47;97513.75;6206017;28;20224;-72
2022/02/07 14:51:05;;;;;;;3.20;0.67;;;;;;;3.62;58.54;97530.78;6205339;28;20226;-72
2022/02/07 14:54:17;;;;;;;1.03;0.60;;;;;;;3.64;58.71;97538.53;6204014;28;20212;-73
2022/02/07 14:57:21;;;;;;;0.83;0.40;;;;;;;3.64;58.65;97526.31;6203604;28;20319;-73
2022/02/07 15:00:28;;;;;;;2.00;0.70;;;;;;;3.62;58.85;97543.81;6223384;28;20716;-72
2022/02/07 15:03:31;;;;;;;2.90;0.63;;;;;;;3.68;58.58;97546.09;6228789;28;20280;-73
2022/02/07 15:06:33;;;;;;;1.73;0.67;;;;;;;3.71;56.85;97552.91;6229478;28;20236;-74
2022/02/07 15:09:35;;;;;;;3.40;0.87;;;;;;;3.68;57.40;97538.28;6227716;28;20499;-72
2022/02/07 16:12:12;;;;;;;0.87;0.43;;;;;;;2.58;68.02;97683.94;5085726;28;20231;-73
2022/02/07 16:15:15;;;;;;;0.40;0.40;;;;;;;2.53;68.21;97690.25;6218580;28;20296;-72
2022/02/07 16:18:19;;;;;;;1.03;0.50;;;;;;;2.53;68.28;97685.06;6220042;28;20217;-71
2022/02/07 16:21:22;;;;;;;1.73;0.53;;;;;;;2.52;68.24;97704.19;6227448;28;20231;-72
2022/02/07 16:24:25;;;;;;;1.03;0.50;;;;;;;2.51;68.44;97699.91;6228651;28;20233;-73
2022/02/07 16:27:27;;;;;;;0.40;0.30;;;;;;;2.51;68.02;97705.13;6226603;28;20233;-72
2022/02/07 16:30:30;;;;;;;0.87;0.60;;;;;;;2.50;68.16;97699.06;6228213;28;20229;-72
2022/02/07 16:33:32;;;;;;;1.07;0.67;;;;;;;2.47;68.47;97712.25;6227496;28;20238;-74
2022/02/07 16:36:36;;;;;;;1.77;0.50;;;;;;;2.45;68.79;97715.84;6225432;28;20708;-72
2022/02/07 16:39:38;;;;;;;1.10;0.40;;;;;;;2.45;69.00;97742.72;6226087;28;20257;-72
2022/02/07 16:42:41;;;;;;;0.83;0.40;;;;;;;2.49;68.67;97739.06;6213617;28;20241;-70
2022/02/07 16:48:47;;;;;;;2.40;0.60;;;;;;;2.50;69.57;97781.56;6226067;28;20259;-73
2022/02/07 16:51:53;;;;;;;0.57;0.30;;;;;;;2.48;70.03;97771.25;6218068;28;20232;-73
2022/02/07 16:54:56;;;;;;;1.43;0.50;;;;;;;2.46;70.02;97785.25;6207871;28;20228;-71
2022/02/07 16:57:58;;;;;;;1.77;0.60;;;;;;;2.48;69.99;97780.81;6226957;28;20220;-71
2022/02/07 17:01:02;;;;;;;0.97;0.40;;;;;;;2.50;70.57;97785.00;6227039;28;20240;-71
2022/02/07 17:04:07;;;;;;;1.30;0.50;;;;;;;2.42;71.38;97783.69;6202798;28;20236;-72
2022/02/07 17:07:09;;;;;;;1.90;0.60;;;;;;;2.40;71.29;97790.72;6224767;28;20236;-72
2022/02/07 17:10:18;;;;;;;1.53;0.50;;;;;;;2.35;72.89;97775.31;6219566;28;20220;-72
2022/02/07 17:13:20;;;;;;;1.33;0.70;;;;;;;2.33;73.01;97786.72;6212534;28;20475;-72
2022/02/07 17:16:23;;;;;;;1.40;0.80;;;;;;;2.30;72.65;97789.44;6226487;28;20239;-72
2022/02/07 17:19:25;;;;;;;3.27;1.20;;;;;;;2.24;73.36;97787.97;6225040;28;20234;-71
2022/02/07 17:22:27;;;;;;;1.87;1.00;;;;;;;2.21;73.29;97799.38;6224909;28;20245;-72
2022/02/07 17:25:29;;;;;;;2.80;0.80;;;;;;;2.21;73.83;97815.00;6225290;28;20260;-73
2022/02/07 17:28:33;;;;;;;1.57;0.87;;;;;;;2.21;73.71;97834.97;6226467;28;20240;-72
2022/02/07 17:31:35;;;;;;;1.20;0.73;;;;;;;2.22;73.73;97844.47;6226259;28;20246;-71
2022/02/07 17:34:37;;;;;;;2.33;0.70;;;;;;;2.27;72.97;97833.88;6224739;28;20233;-72
2022/02/07 17:37:41;;;;;;;2.37;1.20;;;;;;;2.31;71.82;97844.06;6225919;28;20270;-71
2022/02/07 17:40:44;;;;;;;3.57;1.07;;;;;;;2.33;72.36;97881.31;6224376;28;20233;-73
2022/02/07 17:43:52;;;;;;;1.30;0.60;;;;;;;2.35;71.29;97869.06;6216311;28;20240;-73
2022/02/07 17:47:00;;;;;;;2.80;0.87;;;;;;;2.36;71.66;97877.72;6200658;28;20229;-72
2022/02/07 17:50:05;;;;;;;3.40;0.90;;;;;;;2.32;71.23;97890.03;6200978;28;20232;-72
2022/02/07 17:53:10;;;;;;;2.87;1.03;;;;;;;2.31;71.16;97895.28;6200412;28;20224;-71
2022/02/07 17:56:13;;;;;;;3.27;1.13;;;;;;;2.37;70.02;97903.69;6200966;28;20235;-72
2022/02/07 17:59:16;;;;;;;1.80;0.73;;;;;;;2.42;69.24;97924.31;6202196;28;20232;-71
2022/02/07 18:02:20;;;;;;;1.77;0.80;;;;;;;2.46;67.93;97931.94;6205838;28;20325;-73
2022/02/07 18:05:31;;;;;;;3.43;0.97;;;;;;;2.49;68.27;97924.00;6224704;28;20227;-73
2022/02/07 18:08:33;;;;;;;4.40;0.80;;;;;;;2.51;67.49;97942.16;6228123;28;20255;-72
2022/02/07 18:11:35;;;;;;;3.03;1.00;;;;;;;2.54;66.68;97942.03;6218540;28;20243;-72
2022/02/07 18:14:37;;;;;;;2.23;1.00;;;;;;;2.57;66.03;97949.72;6225761;28;20230;-71
2022/02/07 18:17:39;;;;;;;5.13;1.20;;;;;;;2.53;64.68;97940.31;6225673;28;20225;-73
2022/02/07 18:20:47;;;;;;;7.97;1.60;;;;;;;2.52;64.04;97939.47;6207747;28;20220;-73
2022/02/07 18:23:51;;;;;;;6.93;1.20;;;;;;;2.52;63.21;97938.63;6224380;28;20251;-72
2022/02/07 18:26:55;;;;;;;6.40;1.40;;;;;;;2.43;63.05;97941.63;6223420;28;20225;-72
2022/02/07 18:29:58;;;;;;;6.70;1.60;;;;;;;2.47;61.81;97932.78;6225720;28;20232;-72
2022/02/07 18:33:01;;;;;;;5.13;1.80;;;;;;;2.50;61.79;97951.72;6225169;28;20235;-72
2022/02/07 18:36:12;;;;;;;8.00;1.87;;;;;;;2.49;62.02;97955.25;6223846;28;20224;-72
2022/02/07 18:39:14;;;;;;;6.63;1.77;;;;;;;2.50;61.94;97964.75;6225301;28;20630;-72
2022/02/07 18:42:17;;;;;;;6.20;1.60;;;;;;;2.54;61.39;97970.69;6223025;28;20282;-71
2022/02/07 18:45:23;;;;;;;10.97;1.90;;;;;;;2.56;60.75;97964.50;6224439;28;20225;-74
2022/02/07 18:48:26;;;;;;;4.27;1.13;;;;;;;2.63;60.38;98030.19;6225060;28;20220;-72